sensor_id;sensor_type;location;lat;lon;timestamp;pressure;altitude;pressure_sealevel;temperature;humidity
11985;BME280;6052;53.246;10.368;2023-03-14T00:01:28;98406.25;;;13.35;100.00
11985;BME280;6052;53.246;10.368;2023-03-14T00:03:57;98413.00;;;13.24;100.00
11985;BME280;6052;53.246;10.368;2023-03-14T00:06:29;98418.25;;;13.29;100.00
11985;BME280;6052;53.246;10.368;2023-03-14T00:08:59;98428.25;;;13.28;100.00
11985;BME280;6052;53.246;10.368;2023-03-14T00:11:28;98419.50;;;13.23;100.00
11985;BME280;6052;53.246;10.368;2023-03-14T00:13:58;98412.28;;;13.40;100.00
11985;BME280;6052;53.246;10.368;2023-03-14T00:16:29;98408.97;;;13.35;100.00
11985;BME280;6052;53.246;10.368;2023-03-14T00:18:59;98411.16;;;13.33;100.00
11985;BME280;6052;53.246;10.368;2023-03-14T00:21:31;98393.09;;;13.33;100.00
11985;BME280;6052;53.246;10.368;2023-03-14T00:24:00;98398.72;;;13.54;100.00
11985;BME280;6052;53.246;10.368;2023-03-14T00:26:30;98403.13;;;13.41;100.00
11985;BME280;6052;53.246;10.368;2023-03-14T00:28:59;98420.47;;;13.27;100.00
11985;BME280;6052;53.246;10.368;2023-03-14T00:31:28;98427.47;;;13.36;100.00
11985;BME280;6052;53.246;10.368;2023-03-14T00:33:58;98428.00;;;13.38;100.00
11985;BME280;6052;53.246;10.368;2023-03-14T00:36:27;98424.78;;;13.36;100.00
11985;BME280;6052;53.246;10.368;2023-03-14T00:38:59;98396.75;;;13.37;100.00
11985;BME280;6052;53.246;10.368;2023-03-14T00:41:28;98392.50;;;13.45;100.00
11985;BME280;6052;53.246;10.368;2023-03-14T00:43:58;98378.75;;;13.55;100.00
11985;BME280;6052;53.246;10.368;2023-03-14T00:46:27;98360.94;;;13.45;100.00
11985;BME280;6052;53.246;10.368;2023-03-14T00:48:57;98341.13;;;13.41;100.00
11985;BME280;6052;53.246;10.368;2023-03-14T00:51:26;98352.84;;;13.37;100.00
11985;BME280;6052;53.246;10.368;2023-03-14T00:53:55;98365.41;;;13.50;100.00
11985;BME280;6052;53.246;10.368;2023-03-14T00:56:27;98385.84;;;13.42;100.00
11985;BME280;6052;53.246;10.368;2023-03-14T00:58:57;98399.72;;;13.27;100.00
11985;BME280;6052;53.246;10.368;2023-03-14T01:01:26;98405.97;;;13.45;100.00
11985;BME280;6052;53.246;10.368;2023-03-14T01:03:56;98405.69;;;13.46;100.00
11985;BME280;6052;53.246;10.368;2023-03-14T01:06:27;98420.22;;;13.37;100.00
11985;BME280;6052;53.246;10.368;2023-03-14T01:08:57;98419.59;;;13.40;100.00
11985;BME280;6052;53.246;10.368;2023-03-14T01:11:31;98424.50;;;13.07;100.00
11985;BME280;6052;53.246;10.368;2023-03-14T01:14:02;98427.16;;;13.29;100.00
11985;BME280;6052;53.246;10.368;2023-03-14T01:16:34;98434.56;;;13.24;100.00
11985;BME280;6052;53.246;10.368;2023-03-14T01:19:04;98419.06;;;13.29;100.00
11985;BME280;6052;53.246;10.368;2023-03-14T01:21:34;98426.13;;;13.17;100.00
11985;BME280;6052;53.246;10.368;2023-03-14T01:24:05;98420.06;;;13.11;100.00
11985;BME280;6052;53.246;10.368;2023-03-14T01:26:37;98400.50;;;13.28;100.00
11985;BME280;6052;53.246;10.368;2023-03-14T01:29:07;98389.69;;;13.19;100.00
11985;BME280;6052;53.246;10.368;2023-03-14T01:31:36;98385.25;;;13.15;100.00
11985;BME280;6052;53.246;10.368;2023-03-14T01:34:05;98374.34;;;13.20;100.00
11985;BME280;6052;53.246;10.368;2023-03-14T01:36:35;98376.44;;;13.31;100.00
11985;BME280;6052;53.246;10.368;2023-03-14T01:39:04;98383.50;;;12.88;100.00
11985;BME280;6052;53.246;10.368;2023-03-14T01:41:37;98393.94;;;13.12;100.00
11985;BME280;6052;53.246;10.368;2023-03-14T01:44:09;98372.50;;;12.98;100.00
11985;BME280;6052;53.246;10.368;2023-03-14T01:46:39;98364.19;;;13.17;100.00
11985;BME280;6052;53.246;10.368;2023-03-14T01:49:13;98371.81;;;13.23;100.00
11985;BME280;6052;53.246;10.368;2023-03-14T01:51:47;98361.47;;;13.17;100.00
11985;BME280;6052;53.246;10.368;2023-03-14T01:54:22;98367.19;;;13.24;100.00
11985;BME280;6052;53.246;10.368;2023-03-14T01:56:59;98352.31;;;13.26;100.00
11985;BME280;6052;53.246;10.368;2023-03-14T01:59:32;98365.31;;;13.24;100.00
11985;BME280;6052;53.246;10.368;2023-03-14T02:02:03;98360.41;;;13.26;100.00
11985;BME280;6052;53.246;10.368;2023-03-14T02:04:35;98351.28;;;13.05;100.00
11985;BME280;6052;53.246;10.368;2023-03-14T02:07:09;98362.44;;;13.12;100.00
11985;BME280;6052;53.246;10.368;2023-03-14T02:09:41;98359.72;;;13.12;100.00
11985;BME280;6052;53.246;10.368;2023-03-14T02:12:15;98343.75;;;13.24;100.00
11985;BME280;6052;53.246;10.368;2023-03-14T02:14:45;98297.81;;;13.29;100.00
11985;BME280;6052;53.246;10.368;2023-03-14T02:17:17;98289.41;;;13.22;100.00
11985;BME280;6052;53.246;10.368;2023-03-14T02:19:57;98286.97;;;13.04;100.00
11985;BME280;6052;53.246;10.368;2023-03-14T02:22:31;98271.75;;;13.08;100.00
11985;BME280;6052;53.246;10.368;2023-03-14T02:25:07;98280.19;;;13.15;100.00
11985;BME280;6052;53.246;10.368;2023-03-14T02:27:40;98283.34;;;13.08;100.00
11985;BME280;6052;53.246;10.368;2023-03-14T02:30:12;98281.50;;;12.95;100.00
11985;BME280;6052;53.246;10.368;2023-03-14T02:32:45;98281.13;;;12.80;100.00
11985;BME280;6052;53.246;10.368;2023-03-14T02:35:19;98268.84;;;12.96;100.00
11985;BME280;6052;53.246;10.368;2023-03-14T02:37:53;98292.22;;;12.78;100.00
11985;BME280;6052;53.246;10.368;2023-03-14T02:40:24;98295.69;;;12.48;100.00
11985;BME280;6052;53.246;10.368;2023-03-14T02:42:56;98307.06;;;12.45;100.00
11985;BME280;6052;53.246;10.368;2023-03-14T02:45:33;98318.63;;;12.24;100.00
11985;BME280;6052;53.246;10.368;2023-03-14T02:48:07;98327.44;;;12.16;100.00
11985;BME280;6052;53.246;10.368;2023-03-14T02:50:38;98337.09;;;12.17;100.00
11985;BME280;6052;53.246;10.368;2023-03-14T02:53:08;98343.56;;;11.94;100.00
11985;BME280;6052;53.246;10.368;2023-03-14T02:55:37;98340.56;;;11.95;100.00
11985;BME280;6052;53.246;10.368;2023-03-14T02:58:09;98331.41;;;11.96;100.00
11985;BME280;6052;53.246;10.368;2023-03-14T03:00:38;98331.00;;;11.89;100.00
11985;BME280;6052;53.246;10.368;2023-03-14T03:03:08;98330.22;;;11.89;100.00
11985;BME280;6052;53.246;10.368;2023-03-14T03:05:37;98323.63;;;11.95;100.00
11985;BME280;6052;53.246;10.368;2023-03-14T03:08:08;98317.25;;;11.91;100.00
11985;BME280;6052;53.246;10.368;2023-03-14T03:10:37;98314.63;;;11.99;100.00
11985;BME280;6052;53.246;10.368;2023-03-14T03:13:09;98307.97;;;11.97;100.00
11985;BME280;6052;53.246;10.368;2023-03-14T03:15:38;98296.50;;;12.05;100.00
11985;BME280;6052;53.246;10.368;2023-03-14T03:18:08;98284.34;;;12.07;100.00
11985;BME280;6052;53.246;10.368;2023-03-14T03:20:37;98278.03;;;12.12;100.00
11985;BME280;6052;53.246;10.368;2023-03-14T03:23:07;98270.47;;;12.14;100.00
11985;BME280;6052;53.246;10.368;2023-03-14T03:25:36;98266.69;;;12.15;100.00
11985;BME280;6052;53.246;10.368;2023-03-14T03:28:06;98265.06;;;12.05;100.00
11985;BME280;6052;53.246;10.368;2023-03-14T03:30:41;98261.44;;;12.10;100.00
11985;BME280;6052;53.246;10.368;2023-03-14T03:33:11;98264.66;;;11.98;100.00
11985;BME280;6052;53.246;10.368;2023-03-14T03:35:45;98258.88;;;12.05;100.00
11985;BME280;6052;53.246;10.368;2023-03-14T03:38:15;98251.59;;;12.05;100.00
11985;BME280;6052;53.246;10.368;2023-03-14T03:40:46;98244.81;;;12.08;100.00
11985;BME280;6052;53.246;10.368;2023-03-14T03:43:15;98251.81;;;12.17;100.00
11985;BME280;6052;53.246;10.368;2023-03-14T03:45:47;98248.09;;;12.05;100.00
11985;BME280;6052;53.246;10.368;2023-03-14T03:48:17;98241.88;;;12.18;100.00
11985;BME280;6052;53.246;10.368;2023-03-14T03:50:47;98254.22;;;12.19;100.00
11985;BME280;6052;53.246;10.368;2023-03-14T03:53:16;98235.88;;;12.21;100.00
11985;BME280;6052;53.246;10.368;2023-03-14T03:55:58;98231.72;;;12.15;100.00
11985;BME280;6052;53.246;10.368;2023-03-14T03:58:28;98241.38;;;12.16;100.00
11985;BME280;6052;53.246;10.368;2023-03-14T04:01:00;98240.09;;;12.13;100.00
11985;BME280;6052;53.246;10.368;2023-03-14T04:03:29;98232.31;;;12.12;100.00
11985;BME280;6052;53.246;10.368;2023-03-14T04:05:59;98222.84;;;12.14;100.00
11985;BME280;6052;53.246;10.368;2023-03-14T04:08:29;98216.81;;;12.09;100.00
11985;BME280;6052;53.246;10.368;2023-03-14T04:11:00;98210.81;;;12.12;100.00
11985;BME280;6052;53.246;10.368;2023-03-14T04:13:30;98215.38;;;12.03;100.00
11985;BME280;6052;53.246;10.368;2023-03-14T04:16:02;98220.41;;;12.04;100.00
11985;BME280;6052;53.246;10.368;2023-03-14T04:18:31;98214.25;;;12.04;100.00
11985;BME280;6052;53.246;10.368;2023-03-14T04:21:00;98216.94;;;12.04;100.00
11985;BME280;6052;53.246;10.368;2023-03-14T04:23:30;98203.84;;;12.11;100.00
11985;BME280;6052;53.246;10.368;2023-03-14T04:25:59;98208.25;;;12.07;100.00
11985;BME280;6052;53.246;10.368;2023-03-14T04:28:29;98213.72;;;12.15;100.00
11985;BME280;6052;53.246;10.368;2023-03-14T04:30:58;98210.75;;;12.25;100.00
11985;BME280;6052;53.246;10.368;2023-03-14T04:33:31;98212.63;;;12.25;100.00
11985;BME280;6052;53.246;10.368;2023-03-14T04:36:01;98213.88;;;12.19;100.00
11985;BME280;6052;53.246;10.368;2023-03-14T04:38:30;98204.81;;;12.37;100.00
11985;BME280;6052;53.246;10.368;2023-03-14T04:41:00;98205.53;;;12.29;100.00
11985;BME280;6052;53.246;10.368;2023-03-14T04:43:30;98199.06;;;12.30;100.00
11985;BME280;6052;53.246;10.368;2023-03-14T04:45:59;98190.72;;;12.40;100.00
11985;BME280;6052;53.246;10.368;2023-03-14T04:48:31;98190.84;;;12.35;100.00
11985;BME280;6052;53.246;10.368;2023-03-14T04:51:01;98190.38;;;12.33;100.00
11985;BME280;6052;53.246;10.368;2023-03-14T04:53:30;98192.56;;;12.31;100.00
11985;BME280;6052;53.246;10.368;2023-03-14T04:56:01;98183.78;;;12.47;100.00
11985;BME280;6052;53.246;10.368;2023-03-14T04:58:30;98184.69;;;12.34;100.00
11985;BME280;6052;53.246;10.368;2023-03-14T05:01:02;98191.97;;;12.34;100.00
11985;BME280;6052;53.246;10.368;2023-03-14T05:03:34;98186.91;;;12.41;100.00
11985;BME280;6052;53.246;10.368;2023-03-14T05:06:05;98188.84;;;12.40;100.00
11985;BME280;6052;53.246;10.368;2023-03-14T05:08:34;98189.31;;;12.42;100.00
11985;BME280;6052;53.246;10.368;2023-03-14T05:11:04;98176.00;;;12.37;100.00
11985;BME280;6052;53.246;10.368;2023-03-14T05:13:34;98182.44;;;12.28;100.00
11985;BME280;6052;53.246;10.368;2023-03-14T05:16:07;98183.84;;;12.25;100.00
11985;BME280;6052;53.246;10.368;2023-03-14T05:18:40;98181.19;;;12.34;100.00
11985;BME280;6052;53.246;10.368;2023-03-14T05:21:09;98166.47;;;12.31;100.00
11985;BME280;6052;53.246;10.368;2023-03-14T05:23:39;98162.03;;;12.27;100.00
11985;BME280;6052;53.246;10.368;2023-03-14T05:26:08;98158.84;;;12.25;100.00
11985;BME280;6052;53.246;10.368;2023-03-14T05:28:38;98147.09;;;12.12;100.00
11985;BME280;6052;53.246;10.368;2023-03-14T05:31:08;98164.66;;;12.18;100.00
11985;BME280;6052;53.246;10.368;2023-03-14T05:33:40;98167.41;;;12.27;100.00
11985;BME280;6052;53.246;10.368;2023-03-14T05:36:10;98174.28;;;12.11;100.00
11985;BME280;6052;53.246;10.368;2023-03-14T05:38:39;98172.56;;;12.15;100.00
11985;BME280;6052;53.246;10.368;2023-03-14T05:41:09;98153.25;;;12.13;100.00
11985;BME280;6052;53.246;10.368;2023-03-14T05:43:38;98162.28;;;12.17;100.00
11985;BME280;6052;53.246;10.368;2023-03-14T05:46:07;98167.91;;;12.37;100.00
11985;BME280;6052;53.246;10.368;2023-03-14T05:48:37;98152.63;;;12.16;100.00
11985;BME280;6052;53.246;10.368;2023-03-14T05:51:09;98167.72;;;12.25;100.00
11985;BME280;6052;53.246;10.368;2023-03-14T05:53:38;98158.13;;;12.11;100.00
11985;BME280;6052;53.246;10.368;2023-03-14T05:56:08;98176.31;;;12.05;100.00
11985;BME280;6052;53.246;10.368;2023-03-14T05:58:37;98185.66;;;12.08;100.00
11985;BME280;6052;53.246;10.368;2023-03-14T06:01:07;98177.34;;;12.18;100.00
11985;BME280;6052;53.246;10.368;2023-03-14T06:03:37;98190.00;;;12.26;100.00
11985;BME280;6052;53.246;10.368;2023-03-14T06:06:09;98184.63;;;12.26;100.00
11985;BME280;6052;53.246;10.368;2023-03-14T06:08:38;98178.19;;;12.27;100.00
11985;BME280;6052;53.246;10.368;2023-03-14T06:11:07;98183.00;;;12.16;100.00
11985;BME280;6052;53.246;10.368;2023-03-14T06:13:38;98182.44;;;11.97;100.00
11985;BME280;6052;53.246;10.368;2023-03-14T06:16:08;98186.41;;;12.00;100.00
11985;BME280;6052;53.246;10.368;2023-03-14T06:18:37;98180.47;;;12.11;100.00
11985;BME280;6052;53.246;10.368;2023-03-14T06:21:16;98188.47;;;11.81;100.00
11985;BME280;6052;53.246;10.368;2023-03-14T06:23:46;98185.25;;;11.92;100.00
11985;BME280;6052;53.246;10.368;2023-03-14T06:26:15;98189.69;;;11.97;100.00
11985;BME280;6052;53.246;10.368;2023-03-14T06:28:44;98193.53;;;12.04;100.00
11985;BME280;6052;53.246;10.368;2023-03-14T06:31:13;98186.41;;;12.00;100.00
11985;BME280;6052;53.246;10.368;2023-03-14T06:33:43;98194.72;;;11.90;100.00
11985;BME280;6052;53.246;10.368;2023-03-14T06:36:12;98204.53;;;11.94;100.00
11985;BME280;6052;53.246;10.368;2023-03-14T06:38:44;98210.16;;;12.06;100.00
11985;BME280;6052;53.246;10.368;2023-03-14T06:41:13;98228.97;;;11.84;100.00
11985;BME280;6052;53.246;10.368;2023-03-14T06:43:42;98214.34;;;11.90;100.00
11985;BME280;6052;53.246;10.368;2023-03-14T06:46:11;98212.97;;;12.01;100.00
11985;BME280;6052;53.246;10.368;2023-03-14T06:48:42;98214.69;;;11.97;100.00
11985;BME280;6052;53.246;10.368;2023-03-14T06:51:11;98213.22;;;11.91;100.00
11985;BME280;6052;53.246;10.368;2023-03-14T06:53:40;98218.78;;;11.73;100.00
11985;BME280;6052;53.246;10.368;2023-03-14T06:56:12;98225.31;;;12.02;100.00
11985;BME280;6052;53.246;10.368;2023-03-14T06:58:41;98232.78;;;11.83;100.00
11985;BME280;6052;53.246;10.368;2023-03-14T07:01:20;98214.75;;;11.62;100.00
11985;BME280;6052;53.246;10.368;2023-03-14T07:03:50;98229.03;;;11.71;100.00
11985;BME280;6052;53.246;10.368;2023-03-14T07:06:20;98232.28;;;11.81;100.00
11985;BME280;6052;53.246;10.368;2023-03-14T07:08:49;98232.72;;;11.75;100.00
11985;BME280;6052;53.246;10.368;2023-03-14T07:11:23;98228.81;;;11.81;100.00
11985;BME280;6052;53.246;10.368;2023-03-14T07:13:52;98233.06;;;11.82;100.00
11985;BME280;6052;53.246;10.368;2023-03-14T07:16:21;98234.47;;;11.79;100.00
11985;BME280;6052;53.246;10.368;2023-03-14T07:18:54;98236.53;;;11.60;100.00
11985;BME280;6052;53.246;10.368;2023-03-14T07:21:24;98240.25;;;11.37;100.00
11985;BME280;6052;53.246;10.368;2023-03-14T07:23:53;98239.13;;;11.52;100.00
11985;BME280;6052;53.246;10.368;2023-03-14T07:26:25;98250.25;;;11.59;100.00
11985;BME280;6052;53.246;10.368;2023-03-14T07:28:54;98262.31;;;11.61;100.00
11985;BME280;6052;53.246;10.368;2023-03-14T07:31:24;98261.00;;;11.59;100.00
11985;BME280;6052;53.246;10.368;2023-03-14T07:33:53;98257.63;;;11.53;100.00
11985;BME280;6052;53.246;10.368;2023-03-14T07:36:22;98262.72;;;11.55;100.00
11985;BME280;6052;53.246;10.368;2023-03-14T07:38:52;98260.31;;;11.67;100.00
11985;BME280;6052;53.246;10.368;2023-03-14T07:41:21;98265.78;;;11.62;100.00
11985;BME280;6052;53.246;10.368;2023-03-14T07:43:53;98251.03;;;11.73;100.00
11985;BME280;6052;53.246;10.368;2023-03-14T07:46:22;98265.19;;;11.65;100.00
11985;BME280;6052;53.246;10.368;2023-03-14T07:48:52;98263.00;;;11.67;100.00
11985;BME280;6052;53.246;10.368;2023-03-14T07:51:21;98252.41;;;11.70;100.00
11985;BME280;6052;53.246;10.368;2023-03-14T07:53:50;98254.56;;;11.82;100.00
11985;BME280;6052;53.246;10.368;2023-03-14T07:56:19;98256.28;;;11.78;100.00
11985;BME280;6052;53.246;10.368;2023-03-14T07:58:49;98251.94;;;11.68;100.00
11985;BME280;6052;53.246;10.368;2023-03-14T08:01:20;98253.78;;;11.81;100.00
11985;BME280;6052;53.246;10.368;2023-03-14T08:03:50;98251.34;;;11.93;100.00
11985;BME280;6052;53.246;10.368;2023-03-14T08:06:19;98254.44;;;11.87;100.00
11985;BME280;6052;53.246;10.368;2023-03-14T08:08:48;98254.28;;;12.05;100.00
11985;BME280;6052;53.246;10.368;2023-03-14T08:11:17;98243.34;;;12.02;100.00
11985;BME280;6052;53.246;10.368;2023-03-14T08:13:47;98246.59;;;11.90;100.00
11985;BME280;6052;53.246;10.368;2023-03-14T08:16:21;98259.59;;;11.97;100.00
11985;BME280;6052;53.246;10.368;2023-03-14T08:18:50;98246.53;;;12.04;100.00
11985;BME280;6052;53.246;10.368;2023-03-14T08:21:20;98245.28;;;12.10;100.00
11985;BME280;6052;53.246;10.368;2023-03-14T08:23:49;98248.03;;;12.18;100.00
11985;BME280;6052;53.246;10.368;2023-03-14T08:26:18;98241.38;;;12.16;100.00
11985;BME280;6052;53.246;10.368;2023-03-14T08:28:47;98232.19;;;12.17;100.00
11985;BME280;6052;53.246;10.368;2023-03-14T08:31:17;98239.09;;;12.31;100.00
11985;BME280;6052;53.246;10.368;2023-03-14T08:33:49;98241.91;;;12.26;100.00
11985;BME280;6052;53.246;10.368;2023-03-14T08:36:18;98239.53;;;12.25;100.00
11985;BME280;6052;53.246;10.368;2023-03-14T08:38:49;98220.09;;;12.28;100.00
11985;BME280;6052;53.246;10.368;2023-03-14T08:41:18;98218.38;;;12.32;100.00
11985;BME280;6052;53.246;10.368;2023-03-14T08:43:48;98224.97;;;12.26;100.00
11985;BME280;6052;53.246;10.368;2023-03-14T08:46:17;98228.38;;;12.40;100.00
11985;BME280;6052;53.246;10.368;2023-03-14T08:48:49;98223.03;;;12.48;100.00
11985;BME280;6052;53.246;10.368;2023-03-14T08:51:18;98220.06;;;12.58;100.00
11985;BME280;6052;53.246;10.368;2023-03-14T08:53:48;98219.47;;;12.61;100.00
11985;BME280;6052;53.246;10.368;2023-03-14T08:56:17;98207.81;;;12.74;100.00
11985;BME280;6052;53.246;10.368;2023-03-14T08:58:46;98211.75;;;12.68;100.00
11985;BME280;6052;53.246;10.368;2023-03-14T09:01:16;98213.34;;;12.78;100.00
11985;BME280;6052;53.246;10.368;2023-03-14T09:03:45;98214.94;;;12.87;100.00
11985;BME280;6052;53.246;10.368;2023-03-14T09:06:17;98209.44;;;12.92;100.00
11985;BME280;6052;53.246;10.368;2023-03-14T09:08:47;98203.16;;;13.05;100.00
11985;BME280;6052;53.246;10.368;2023-03-14T09:11:16;98202.03;;;13.06;100.00
11985;BME280;6052;53.246;10.368;2023-03-14T09:13:46;98202.03;;;13.06;100.00
11985;BME280;6052;53.246;10.368;2023-03-14T09:16:15;98200.91;;;12.99;100.00
11985;BME280;6052;53.246;10.368;2023-03-14T09:18:44;98216.88;;;12.87;100.00
11985;BME280;6052;53.246;10.368;2023-03-14T09:21:14;98206.44;;;12.94;100.00
11985;BME280;6052;53.246;10.368;2023-03-14T09:23:46;98206.00;;;13.00;100.00
11985;BME280;6052;53.246;10.368;2023-03-14T09:26:15;98217.84;;;12.91;99.60
11985;BME280;6052;53.246;10.368;2023-03-14T09:28:44;98214.03;;;12.92;99.50
11985;BME280;6052;53.246;10.368;2023-03-14T09:31:14;98215.09;;;12.82;98.80
11985;BME280;6052;53.246;10.368;2023-03-14T09:33:43;98216.56;;;12.88;98.88
11985;BME280;6052;53.246;10.368;2023-03-14T09:36:13;98212.63;;;12.94;98.47
11985;BME280;6052;53.246;10.368;2023-03-14T09:38:42;98226.28;;;12.98;99.07
11985;BME280;6052;53.246;10.368;2023-03-14T09:41:16;98220.28;;;13.09;98.97
11985;BME280;6052;53.246;10.368;2023-03-14T09:43:48;98211.59;;;13.12;98.46
11985;BME280;6052;53.246;10.368;2023-03-14T09:46:20;98210.78;;;13.03;97.99
11985;BME280;6052;53.246;10.368;2023-03-14T09:48:50;98206.16;;;13.04;97.97
11985;BME280;6052;53.246;10.368;2023-03-14T09:51:20;98203.97;;;13.06;97.28
11985;BME280;6052;53.246;10.368;2023-03-14T09:53:50;98209.34;;;13.14;97.90
11985;BME280;6052;53.246;10.368;2023-03-14T09:56:26;98214.59;;;13.19;98.07
11985;BME280;6052;53.246;10.368;2023-03-14T09:58:58;98218.56;;;13.22;98.23
11985;BME280;6052;53.246;10.368;2023-03-14T10:01:30;98208.41;;;13.19;99.50
11985;BME280;6052;53.246;10.368;2023-03-14T10:04:02;98199.53;;;13.10;99.35
11985;BME280;6052;53.246;10.368;2023-03-14T10:06:34;98214.09;;;13.09;99.04
11985;BME280;6052;53.246;10.368;2023-03-14T10:09:03;98219.38;;;13.22;98.22
11985;BME280;6052;53.246;10.368;2023-03-14T10:11:35;98208.75;;;13.26;97.48
11985;BME280;6052;53.246;10.368;2023-03-14T10:14:07;98213.03;;;13.27;98.10
11985;BME280;6052;53.246;10.368;2023-03-14T10:16:41;98217.94;;;13.25;98.92
11985;BME280;6052;53.246;10.368;2023-03-14T10:19:12;98217.28;;;13.11;97.87
11985;BME280;6052;53.246;10.368;2023-03-14T10:21:43;98218.25;;;13.15;97.69
11985;BME280;6052;53.246;10.368;2023-03-14T10:24:19;98224.41;;;13.15;98.12
11985;BME280;6052;53.246;10.368;2023-03-14T10:26:53;98226.19;;;13.20;99.67
11985;BME280;6052;53.246;10.368;2023-03-14T10:29:24;98255.47;;;13.21;100.00
11985;BME280;6052;53.246;10.368;2023-03-14T10:31:54;98256.56;;;13.12;100.00
11985;BME280;6052;53.246;10.368;2023-03-14T10:34:27;98288.44;;;12.88;100.00
11985;BME280;6052;53.246;10.368;2023-03-14T10:36:58;98289.75;;;12.60;100.00
11985;BME280;6052;53.246;10.368;2023-03-14T10:39:38;98293.53;;;12.59;100.00
11985;BME280;6052;53.246;10.368;2023-03-14T10:42:19;98296.84;;;12.56;100.00
11985;BME280;6052;53.246;10.368;2023-03-14T10:44:53;98310.91;;;12.53;100.00
11985;BME280;6052;53.246;10.368;2023-03-14T10:47:25;98301.56;;;12.50;100.00
11985;BME280;6052;53.246;10.368;2023-03-14T10:50:21;98314.97;;;12.42;100.00
11985;BME280;6052;53.246;10.368;2023-03-14T10:52:52;98350.44;;;12.22;100.00
11985;BME280;6052;53.246;10.368;2023-03-14T10:55:39;98379.03;;;11.82;100.00
11985;BME280;6052;53.246;10.368;2023-03-14T10:58:25;98373.97;;;11.54;100.00
11985;BME280;6052;53.246;10.368;2023-03-14T11:01:04;98389.84;;;11.50;100.00
11985;BME280;6052;53.246;10.368;2023-03-14T11:03:42;98405.03;;;11.60;100.00
11985;BME280;6052;53.246;10.368;2023-03-14T11:06:16;98418.00;;;11.53;100.00
11985;BME280;6052;53.246;10.368;2023-03-14T11:08:52;98424.63;;;11.60;100.00
11985;BME280;6052;53.246;10.368;2023-03-14T11:11:26;98423.41;;;11.39;100.00
11985;BME280;6052;53.246;10.368;2023-03-14T11:14:11;98431.94;;;11.28;100.00
11985;BME280;6052;53.246;10.368;2023-03-14T11:16:52;98446.66;;;11.30;100.00
11985;BME280;6052;53.246;10.368;2023-03-14T11:19:32;98451.13;;;11.21;100.00
11985;BME280;6052;53.246;10.368;2023-03-14T11:22:10;98471.06;;;11.02;100.00
11985;BME280;6052;53.246;10.368;2023-03-14T11:24:52;98464.84;;;10.88;100.00
11985;BME280;6052;53.246;10.368;2023-03-14T11:27:30;98483.34;;;10.89;100.00
11985;BME280;6052;53.246;10.368;2023-03-14T11:30:16;98485.09;;;10.80;100.00
11985;BME280;6052;53.246;10.368;2023-03-14T11:32:51;98511.66;;;10.63;100.00
11985;BME280;6052;53.246;10.368;2023-03-14T11:35:28;98518.97;;;10.76;100.00
11985;BME280;6052;53.246;10.368;2023-03-14T11:38:05;98527.59;;;10.55;100.00
11985;BME280;6052;53.246;10.368;2023-03-14T11:40:39;98536.34;;;10.23;100.00
11985;BME280;6052;53.246;10.368;2023-03-14T11:43:12;98576.00;;;10.03;100.00
11985;BME280;6052;53.246;10.368;2023-03-14T11:45:47;98572.50;;;10.02;100.00
11985;BME280;6052;53.246;10.368;2023-03-14T11:48:25;98584.72;;;9.61;100.00
11985;BME280;6052;53.246;10.368;2023-03-14T11:50:59;98592.25;;;9.83;100.00
11985;BME280;6052;53.246;10.368;2023-03-14T11:53:40;98619.63;;;9.80;99.77
11985;BME280;6052;53.246;10.368;2023-03-14T11:56:16;98640.50;;;9.49;98.43
11985;BME280;6052;53.246;10.368;2023-03-14T11:58:54;98638.19;;;9.71;97.94
11985;BME280;6052;53.246;10.368;2023-03-14T12:01:33;98651.00;;;9.46;98.57
11985;BME280;6052;53.246;10.368;2023-03-14T12:04:09;98667.03;;;9.51;97.73
11985;BME280;6052;53.246;10.368;2023-03-14T12:06:47;98676.03;;;9.65;98.11
11985;BME280;6052;53.246;10.368;2023-03-14T12:09:18;98675.56;;;9.53;97.66
11985;BME280;6052;53.246;10.368;2023-03-14T12:11:52;98683.66;;;9.43;98.52
11985;BME280;6052;53.246;10.368;2023-03-14T12:14:26;98684.34;;;9.63;97.69
11985;BME280;6052;53.246;10.368;2023-03-14T12:17:04;98697.78;;;9.20;97.00
11985;BME280;6052;53.246;10.368;2023-03-14T12:19:38;98706.56;;;9.20;96.38
11985;BME280;6052;53.246;10.368;2023-03-14T12:22:26;98711.72;;;9.12;96.16
11985;BME280;6052;53.246;10.368;2023-03-14T12:25:00;98730.44;;;9.12;95.95
11985;BME280;6052;53.246;10.368;2023-03-14T12:27:48;98735.78;;;9.17;96.05
11985;BME280;6052;53.246;10.368;2023-03-14T12:30:26;98748.59;;;9.25;96.20
11985;BME280;6052;53.246;10.368;2023-03-14T12:33:29;98752.69;;;9.07;96.68
11985;BME280;6052;53.246;10.368;2023-03-14T12:36:04;98775.94;;;9.17;96.44
11985;BME280;6052;53.246;10.368;2023-03-14T12:38:55;98783.78;;;8.98;96.08
11985;BME280;6052;53.246;10.368;2023-03-14T12:41:36;98793.88;;;9.11;95.80
11985;BME280;6052;53.246;10.368;2023-03-14T12:44:38;98806.22;;;9.02;95.51
11985;BME280;6052;53.246;10.368;2023-03-14T12:50:31;98810.69;;;9.22;94.25
11985;BME280;6052;53.246;10.368;2023-03-14T12:56:11;98816.72;;;8.79;92.09
11985;BME280;6052;53.246;10.368;2023-03-14T12:58:48;98824.69;;;9.04;92.48
11985;BME280;6052;53.246;10.368;2023-03-14T13:01:23;98830.00;;;9.09;91.59
11985;BME280;6052;53.246;10.368;2023-03-14T13:03:54;98841.84;;;8.88;91.27
11985;BME280;6052;53.246;10.368;2023-03-14T13:06:52;98841.31;;;8.91;91.69
11985;BME280;6052;53.246;10.368;2023-03-14T13:12:36;98871.00;;;8.99;90.03
11985;BME280;6052;53.246;10.368;2023-03-14T13:15:28;98876.22;;;9.39;90.66
11985;BME280;6052;53.246;10.368;2023-03-14T13:18:01;98882.91;;;9.42;89.52
11985;BME280;6052;53.246;10.368;2023-03-14T13:20:34;98880.78;;;9.29;89.68
11985;BME280;6052;53.246;10.368;2023-03-14T13:23:19;98884.97;;;9.60;89.79
11985;BME280;6052;53.246;10.368;2023-03-14T13:25:48;98900.19;;;9.69;89.71
11985;BME280;6052;53.246;10.368;2023-03-14T13:28:19;98900.28;;;9.49;88.99